sensor_id;sensor_type;location;lat;lon;timestamp;temperature;humidity
19174;DHT22;9719;49.322;8.536;2023-11-21T00:02:03;9.40;99.90
19174;DHT22;9719;49.322;8.536;2023-11-21T00:07:05;9.50;99.90
19174;DHT22;9719;49.322;8.536;2023-11-21T00:12:08;9.50;99.90
19174;DHT22;9719;49.322;8.536;2023-11-21T00:17:12;9.50;99.90
19174;DHT22;9719;49.322;8.536;2023-11-21T00:22:13;9.50;99.90
19174;DHT22;9719;49.322;8.536;2023-11-21T00:27:16;9.50;99.90
19174;DHT22;9719;49.322;8.536;2023-11-21T00:32:19;9.40;99.90
19174;DHT22;9719;49.322;8.536;2023-11-21T00:37:21;9.40;99.90
19174;DHT22;9719;49.322;8.536;2023-11-21T00:42:22;9.30;99.90
19174;DHT22;9719;49.322;8.536;2023-11-21T00:47:25;9.50;99.90
19174;DHT22;9719;49.322;8.536;2023-11-21T00:52:27;9.50;99.90
19174;DHT22;9719;49.322;8.536;2023-11-21T00:57:29;9.50;99.90
19174;DHT22;9719;49.322;8.536;2023-11-21T01:02:32;9.40;99.90
19174;DHT22;9719;49.322;8.536;2023-11-21T01:07:35;9.50;99.90
19174;DHT22;9719;49.322;8.536;2023-11-21T01:12:38;9.50;99.90
19174;DHT22;9719;49.322;8.536;2023-11-21T01:17:41;9.40;99.90
19174;DHT22;9719;49.322;8.536;2023-11-21T01:22:43;9.40;99.90
19174;DHT22;9719;49.322;8.536;2023-11-21T01:27:45;9.50;99.90
19174;DHT22;9719;49.322;8.536;2023-11-21T01:32:48;9.60;99.90
19174;DHT22;9719;49.322;8.536;2023-11-21T01:37:50;9.60;99.90
19174;DHT22;9719;49.322;8.536;2023-11-21T01:42:53;9.50;99.90
19174;DHT22;9719;49.322;8.536;2023-11-21T01:47:56;9.50;99.90
19174;DHT22;9719;49.322;8.536;2023-11-21T01:52:58;9.50;99.90
19174;DHT22;9719;49.322;8.536;2023-11-21T01:58:00;9.50;99.90
19174;DHT22;9719;49.322;8.536;2023-11-21T02:03:03;9.50;99.90
19174;DHT22;9719;49.322;8.536;2023-11-21T02:08:05;9.60;99.90
19174;DHT22;9719;49.322;8.536;2023-11-21T02:13:06;9.50;99.90
19174;DHT22;9719;49.322;8.536;2023-11-21T02:18:09;9.50;99.90
19174;DHT22;9719;49.322;8.536;2023-11-21T02:23:13;9.50;99.90
19174;DHT22;9719;49.322;8.536;2023-11-21T02:28:15;9.50;99.90
19174;DHT22;9719;49.322;8.536;2023-11-21T02:33:26;9.50;99.90
19174;DHT22;9719;49.322;8.536;2023-11-21T02:38:29;9.50;99.90
19174;DHT22;9719;49.322;8.536;2023-11-21T02:43:30;9.50;99.90
19174;DHT22;9719;49.322;8.536;2023-11-21T02:48:32;9.70;99.90
19174;DHT22;9719;49.322;8.536;2023-11-21T02:53:35;9.60;99.90
19174;DHT22;9719;49.322;8.536;2023-11-21T02:58:41;9.50;99.90
19174;DHT22;9719;49.322;8.536;2023-11-21T03:03:43;9.50;99.90
19174;DHT22;9719;49.322;8.536;2023-11-21T03:08:47;9.50;99.90
19174;DHT22;9719;49.322;8.536;2023-11-21T03:13:49;9.40;99.90
19174;DHT22;9719;49.322;8.536;2023-11-21T03:18:51;9.40;99.90
19174;DHT22;9719;49.322;8.536;2023-11-21T03:23:54;9.40;99.90
19174;DHT22;9719;49.322;8.536;2023-11-21T03:28:56;9.50;99.90
19174;DHT22;9719;49.322;8.536;2023-11-21T03:33:57;9.40;99.90
19174;DHT22;9719;49.322;8.536;2023-11-21T03:39:00;9.50;99.90
19174;DHT22;9719;49.322;8.536;2023-11-21T03:44:02;9.40;99.90
19174;DHT22;9719;49.322;8.536;2023-11-21T03:49:04;9.40;99.90
19174;DHT22;9719;49.322;8.536;2023-11-21T03:54:07;9.50;99.90
19174;DHT22;9719;49.322;8.536;2023-11-21T03:59:09;9.40;99.90
19174;DHT22;9719;49.322;8.536;2023-11-21T04:04:10;9.50;99.90
19174;DHT22;9719;49.322;8.536;2023-11-21T04:09:14;9.50;99.90
19174;DHT22;9719;49.322;8.536;2023-11-21T04:14:15;9.50;99.90
19174;DHT22;9719;49.322;8.536;2023-11-21T04:19:17;9.50;99.90
19174;DHT22;9719;49.322;8.536;2023-11-21T04:24:20;9.50;99.90
19174;DHT22;9719;49.322;8.536;2023-11-21T04:29:21;9.50;99.90
19174;DHT22;9719;49.322;8.536;2023-11-21T04:34:24;9.40;99.90
19174;DHT22;9719;49.322;8.536;2023-11-21T04:39:27;9.50;99.90
19174;DHT22;9719;49.322;8.536;2023-11-21T04:44:28;9.50;99.90
19174;DHT22;9719;49.322;8.536;2023-11-21T04:49:30;9.50;99.90
19174;DHT22;9719;49.322;8.536;2023-11-21T04:54:33;9.60;99.90
19174;DHT22;9719;49.322;8.536;2023-11-21T04:59:35;9.50;99.90
19174;DHT22;9719;49.322;8.536;2023-11-21T05:04:36;9.60;99.90
19174;DHT22;9719;49.322;8.536;2023-11-21T05:09:42;9.50;99.90
19174;DHT22;9719;49.322;8.536;2023-11-21T05:14:44;9.50;99.90
19174;DHT22;9719;49.322;8.536;2023-11-21T05:19:47;9.60;99.90
19174;DHT22;9719;49.322;8.536;2023-11-21T05:24:50;9.50;99.90
19174;DHT22;9719;49.322;8.536;2023-11-21T05:29:52;9.50;99.90
19174;DHT22;9719;49.322;8.536;2023-11-21T05:34:53;9.40;99.90
19174;DHT22;9719;49.322;8.536;2023-11-21T05:39:56;9.40;99.90
19174;DHT22;9719;49.322;8.536;2023-11-21T05:44:58;9.40;99.90
19174;DHT22;9719;49.322;8.536;2023-11-21T05:50:10;9.40;99.90
19174;DHT22;9719;49.322;8.536;2023-11-21T05:55:16;9.30;99.90
19174;DHT22;9719;49.322;8.536;2023-11-21T06:00:18;9.50;99.90
19174;DHT22;9719;49.322;8.536;2023-11-21T06:05:22;9.40;99.90
19174;DHT22;9719;49.322;8.536;2023-11-21T06:10:26;9.40;99.90
19174;DHT22;9719;49.322;8.536;2023-11-21T06:15:28;9.40;99.90
19174;DHT22;9719;49.322;8.536;2023-11-21T06:20:30;9.40;99.90
19174;DHT22;9719;49.322;8.536;2023-11-21T06:25:33;9.30;99.90
19174;DHT22;9719;49.322;8.536;2023-11-21T06:30:36;9.30;99.90
19174;DHT22;9719;49.322;8.536;2023-11-21T06:35:38;9.30;99.90
19174;DHT22;9719;49.322;8.536;2023-11-21T06:40:41;9.40;99.90
19174;DHT22;9719;49.322;8.536;2023-11-21T06:45:43;9.40;99.90
19174;DHT22;9719;49.322;8.536;2023-11-21T06:50:45;9.40;99.90
19174;DHT22;9719;49.322;8.536;2023-11-21T06:55:48;9.40;99.90
19174;DHT22;9719;49.322;8.536;2023-11-21T07:00:50;9.50;99.90
19174;DHT22;9719;49.322;8.536;2023-11-21T07:05:52;9.50;99.90
19174;DHT22;9719;49.322;8.536;2023-11-21T07:10:55;9.40;99.90
19174;DHT22;9719;49.322;8.536;2023-11-21T07:15:57;9.50;99.90
19174;DHT22;9719;49.322;8.536;2023-11-21T07:21:00;9.60;99.90
19174;DHT22;9719;49.322;8.536;2023-11-21T07:26:04;9.50;99.90
19174;DHT22;9719;49.322;8.536;2023-11-21T07:31:09;9.50;99.90
19174;DHT22;9719;49.322;8.536;2023-11-21T07:36:11;9.50;99.90
19174;DHT22;9719;49.322;8.536;2023-11-21T07:41:14;9.70;99.90
19174;DHT22;9719;49.322;8.536;2023-11-21T07:46:16;9.80;99.90
19174;DHT22;9719;49.322;8.536;2023-11-21T07:51:18;9.60;99.90
19174;DHT22;9719;49.322;8.536;2023-11-21T07:56:21;9.70;99.90
19174;DHT22;9719;49.322;8.536;2023-11-21T08:01:23;9.80;99.90
19174;DHT22;9719;49.322;8.536;2023-11-21T08:06:25;9.80;99.90
19174;DHT22;9719;49.322;8.536;2023-11-21T08:11:28;9.70;99.90
19174;DHT22;9719;49.322;8.536;2023-11-21T08:16:32;9.50;99.90
19174;DHT22;9719;49.322;8.536;2023-11-21T08:21:33;9.50;99.90
19174;DHT22;9719;49.322;8.536;2023-11-21T08:26:38;9.50;99.90
19174;DHT22;9719;49.322;8.536;2023-11-21T08:31:40;9.40;99.90
19174;DHT22;9719;49.322;8.536;2023-11-21T08:36:42;9.30;99.90
19174;DHT22;9719;49.322;8.536;2023-11-21T08:41:45;9.50;99.90
19174;DHT22;9719;49.322;8.536;2023-11-21T08:46:47;9.40;99.90
19174;DHT22;9719;49.322;8.536;2023-11-21T08:51:49;9.60;99.90
19174;DHT22;9719;49.322;8.536;2023-11-21T08:56:52;9.60;99.90
19174;DHT22;9719;49.322;8.536;2023-11-21T09:01:55;9.60;99.90
19174;DHT22;9719;49.322;8.536;2023-11-21T09:06:56;9.80;99.90
19174;DHT22;9719;49.322;8.536;2023-11-21T09:12:02;9.70;99.90
19174;DHT22;9719;49.322;8.536;2023-11-21T09:17:03;9.90;99.90
19174;DHT22;9719;49.322;8.536;2023-11-21T09:22:11;10.00;99.90
19174;DHT22;9719;49.322;8.536;2023-11-21T09:27:15;10.00;99.90
19174;DHT22;9719;49.322;8.536;2023-11-21T09:32:17;10.00;99.90
19174;DHT22;9719;49.322;8.536;2023-11-21T09:37:19;10.20;99.90
19174;DHT22;9719;49.322;8.536;2023-11-21T09:42:25;10.30;99.90
19174;DHT22;9719;49.322;8.536;2023-11-21T09:47:30;10.40;99.90
19174;DHT22;9719;49.322;8.536;2023-11-21T09:52:39;10.60;99.90
19174;DHT22;9719;49.322;8.536;2023-11-21T09:57:45;10.40;99.90
19174;DHT22;9719;49.322;8.536;2023-11-21T10:02:49;10.00;99.90
19174;DHT22;9719;49.322;8.536;2023-11-21T10:07:51;10.20;99.90
19174;DHT22;9719;49.322;8.536;2023-11-21T10:12:56;10.00;99.90
19174;DHT22;9719;49.322;8.536;2023-11-21T10:17:58;10.10;99.90
19174;DHT22;9719;49.322;8.536;2023-11-21T10:23:00;9.90;99.90
19174;DHT22;9719;49.322;8.536;2023-11-21T10:28:04;9.90;99.90
19174;DHT22;9719;49.322;8.536;2023-11-21T10:33:07;10.00;99.90
19174;DHT22;9719;49.322;8.536;2023-11-21T10:38:09;10.10;99.90
19174;DHT22;9719;49.322;8.536;2023-11-21T10:43:12;10.20;99.90
19174;DHT22;9719;49.322;8.536;2023-11-21T10:48:15;10.00;99.90
19174;DHT22;9719;49.322;8.536;2023-11-21T10:53:17;10.10;99.90
19174;DHT22;9719;49.322;8.536;2023-11-21T10:58:20;10.00;99.90
19174;DHT22;9719;49.322;8.536;2023-11-21T11:03:22;10.00;99.90
19174;DHT22;9719;49.322;8.536;2023-11-21T11:08:24;10.00;99.90
19174;DHT22;9719;49.322;8.536;2023-11-21T11:13:29;9.90;99.90
19174;DHT22;9719;49.322;8.536;2023-11-21T11:18:32;10.10;99.90
19174;DHT22;9719;49.322;8.536;2023-11-21T11:23:46;10.10;99.90
19174;DHT22;9719;49.322;8.536;2023-11-21T11:29:00;10.10;99.90
19174;DHT22;9719;49.322;8.536;2023-11-21T11:34:14;10.50;99.90
19174;DHT22;9719;49.322;8.536;2023-11-21T11:39:28;10.60;99.90
19174;DHT22;9719;49.322;8.536;2023-11-21T11:44:52;10.40;99.90
19174;DHT22;9719;49.322;8.536;2023-11-21T11:50:00;10.20;99.90
19174;DHT22;9719;49.322;8.536;2023-11-21T11:55:08;10.10;99.90
19174;DHT22;9719;49.322;8.536;2023-11-21T12:00:14;10.20;99.90
19174;DHT22;9719;49.322;8.536;2023-11-21T12:05:21;10.30;99.90
19174;DHT22;9719;49.322;8.536;2023-11-21T12:10:24;10.10;99.90
19174;DHT22;9719;49.322;8.536;2023-11-21T12:15:28;10.50;99.90
19174;DHT22;9719;49.322;8.536;2023-11-21T12:20:32;10.30;99.90
19174;DHT22;9719;49.322;8.536;2023-11-21T12:25:38;10.40;99.90
19174;DHT22;9719;49.322;8.536;2023-11-21T12:30:43;10.50;99.90
19174;DHT22;9719;49.322;8.536;2023-11-21T12:35:45;10.60;99.90
19174;DHT22;9719;49.322;8.536;2023-11-21T12:40:47;10.70;99.90
19174;DHT22;9719;49.322;8.536;2023-11-21T12:45:50;10.60;99.90
19174;DHT22;9719;49.322;8.536;2023-11-21T12:50:53;10.50;99.90
19174;DHT22;9719;49.322;8.536;2023-11-21T12:55:56;10.80;99.90
19174;DHT22;9719;49.322;8.536;2023-11-21T13:01:00;10.80;99.90
19174;DHT22;9719;49.322;8.536;2023-11-21T13:06:04;10.90;99.90
19174;DHT22;9719;49.322;8.536;2023-11-21T13:11:08;11.10;99.90
19174;DHT22;9719;49.322;8.536;2023-11-21T13:16:11;11.40;99.90
19174;DHT22;9719;49.322;8.536;2023-11-21T13:21:13;10.80;99.90
19174;DHT22;9719;49.322;8.536;2023-11-21T13:26:16;11.00;99.90
19174;DHT22;9719;49.322;8.536;2023-11-21T13:31:21;11.20;99.90
19174;DHT22;9719;49.322;8.536;2023-11-21T13:36:26;10.70;99.90
19174;DHT22;9719;49.322;8.536;2023-11-21T13:41:32;10.90;99.90
19174;DHT22;9719;49.322;8.536;2023-11-21T13:46:35;10.90;99.90
19174;DHT22;9719;49.322;8.536;2023-11-21T13:51:38;11.00;99.90
19174;DHT22;9719;49.322;8.536;2023-11-21T13:56:43;10.70;99.90
19174;DHT22;9719;49.322;8.536;2023-11-21T14:01:49;10.70;99.90
19174;DHT22;9719;49.322;8.536;2023-11-21T14:06:59;10.60;99.90
19174;DHT22;9719;49.322;8.536;2023-11-21T14:12:14;10.60;99.90
19174;DHT22;9719;49.322;8.536;2023-11-21T14:17:17;10.60;99.90
19174;DHT22;9719;49.322;8.536;2023-11-21T14:22:22;10.60;99.90
19174;DHT22;9719;49.322;8.536;2023-11-21T14:27:26;10.70;99.90
19174;DHT22;9719;49.322;8.536;2023-11-21T14:32:29;10.80;99.90
19174;DHT22;9719;49.322;8.536;2023-11-21T14:37:31;10.70;99.90
19174;DHT22;9719;49.322;8.536;2023-11-21T14:42:33;10.80;99.90
19174;DHT22;9719;49.322;8.536;2023-11-21T14:47:38;10.70;99.90
19174;DHT22;9719;49.322;8.536;2023-11-21T14:52:44;10.50;99.90
19174;DHT22;9719;49.322;8.536;2023-11-21T14:57:56;10.40;99.90
19174;DHT22;9719;49.322;8.536;2023-11-21T15:03:00;10.50;99.90
19174;DHT22;9719;49.322;8.536;2023-11-21T15:08:01;10.40;99.90
19174;DHT22;9719;49.322;8.536;2023-11-21T15:13:19;10.30;99.90
19174;DHT22;9719;49.322;8.536;2023-11-21T15:18:23;10.10;99.90
19174;DHT22;9719;49.322;8.536;2023-11-21T15:23:25;10.20;99.90
19174;DHT22;9719;49.322;8.536;2023-11-21T15:28:28;10.20;99.90
19174;DHT22;9719;49.322;8.536;2023-11-21T15:33:31;10.00;99.90
19174;DHT22;9719;49.322;8.536;2023-11-21T15:38:33;9.90;99.90
19174;DHT22;9719;49.322;8.536;2023-11-21T15:43:35;9.90;99.90
19174;DHT22;9719;49.322;8.536;2023-11-21T15:48:38;9.80;99.90
19174;DHT22;9719;49.322;8.536;2023-11-21T15:53:44;9.70;99.90
19174;DHT22;9719;49.322;8.536;2023-11-21T15:58:46;9.70;99.90
19174;DHT22;9719;49.322;8.536;2023-11-21T16:03:49;9.60;99.90
19174;DHT22;9719;49.322;8.536;2023-11-21T16:08:51;9.70;99.90
19174;DHT22;9719;49.322;8.536;2023-11-21T16:13:53;9.60;99.90
19174;DHT22;9719;49.322;8.536;2023-11-21T16:18:56;9.60;99.90
19174;DHT22;9719;49.322;8.536;2023-11-21T16:23:57;9.70;99.90
19174;DHT22;9719;49.322;8.536;2023-11-21T16:28:59;9.70;99.90
19174;DHT22;9719;49.322;8.536;2023-11-21T16:34:11;9.80;99.90
19174;DHT22;9719;49.322;8.536;2023-11-21T16:39:13;9.80;99.90
19174;DHT22;9719;49.322;8.536;2023-11-21T16:44:15;9.80;99.90
19174;DHT22;9719;49.322;8.536;2023-11-21T16:49:19;9.80;99.90
19174;DHT22;9719;49.322;8.536;2023-11-21T16:54:21;9.80;99.90
19174;DHT22;9719;49.322;8.536;2023-11-21T16:59:22;9.90;99.90
19174;DHT22;9719;49.322;8.536;2023-11-21T17:04:25;9.90;99.90
19174;DHT22;9719;49.322;8.536;2023-11-21T17:09:27;9.80;99.90
19174;DHT22;9719;49.322;8.536;2023-11-21T17:14:29;9.80;99.90
19174;DHT22;9719;49.322;8.536;2023-11-21T17:19:32;9.70;99.90
19174;DHT22;9719;49.322;8.536;2023-11-21T17:24:35;9.80;99.90
19174;DHT22;9719;49.322;8.536;2023-11-21T17:29:37;9.70;99.90
19174;DHT22;9719;49.322;8.536;2023-11-21T17:34:40;9.70;99.90
19174;DHT22;9719;49.322;8.536;2023-11-21T17:39:42;9.80;99.90
19174;DHT22;9719;49.322;8.536;2023-11-21T17:44:43;9.70;99.90
19174;DHT22;9719;49.322;8.536;2023-11-21T17:49:46;9.70;99.90
19174;DHT22;9719;49.322;8.536;2023-11-21T17:54:49;9.70;99.90
19174;DHT22;9719;49.322;8.536;2023-11-21T17:59:51;9.60;99.90
19174;DHT22;9719;49.322;8.536;2023-11-21T18:04:54;9.70;99.90
19174;DHT22;9719;49.322;8.536;2023-11-21T18:09:56;9.70;99.90
19174;DHT22;9719;49.322;8.536;2023-11-21T18:14:57;9.70;99.90
19174;DHT22;9719;49.322;8.536;2023-11-21T18:20:00;9.80;99.90
19174;DHT22;9719;49.322;8.536;2023-11-21T18:25:03;9.50;99.90
19174;DHT22;9719;49.322;8.536;2023-11-21T18:30:06;9.50;99.90
19174;DHT22;9719;49.322;8.536;2023-11-21T18:35:09;9.50;99.90
19174;DHT22;9719;49.322;8.536;2023-11-21T18:40:11;9.50;99.90
19174;DHT22;9719;49.322;8.536;2023-11-21T18:45:13;9.60;99.90
19174;DHT22;9719;49.322;8.536;2023-11-21T18:50:16;9.50;99.90
19174;DHT22;9719;49.322;8.536;2023-11-21T18:55:21;9.40;99.90
19174;DHT22;9719;49.322;8.536;2023-11-21T19:00:22;9.30;99.90
19174;DHT22;9719;49.322;8.536;2023-11-21T19:05:25;9.40;99.90
19174;DHT22;9719;49.322;8.536;2023-11-21T19:10:27;9.50;99.90
19174;DHT22;9719;49.322;8.536;2023-11-21T19:15:30;9.30;99.90
19174;DHT22;9719;49.322;8.536;2023-11-21T19:20:33;9.20;99.90
19174;DHT22;9719;49.322;8.536;2023-11-21T19:25:34;9.00;99.90
19174;DHT22;9719;49.322;8.536;2023-11-21T19:30:36;9.10;99.90
19174;DHT22;9719;49.322;8.536;2023-11-21T19:35:42;9.10;99.90
19174;DHT22;9719;49.322;8.536;2023-11-21T19:40:44;9.00;99.90
19174;DHT22;9719;49.322;8.536;2023-11-21T19:45:45;9.00;99.90
19174;DHT22;9719;49.322;8.536;2023-11-21T19:50:49;8.90;99.90
19174;DHT22;9719;49.322;8.536;2023-11-21T19:55:50;8.90;99.90
19174;DHT22;9719;49.322;8.536;2023-11-21T20:00:52;9.10;99.90
19174;DHT22;9719;49.322;8.536;2023-11-21T20:05:55;9.10;99.90
19174;DHT22;9719;49.322;8.536;2023-11-21T20:10:57;9.00;99.90
19174;DHT22;9719;49.322;8.536;2023-11-21T20:15:58;9.10;99.90
19174;DHT22;9719;49.322;8.536;2023-11-21T20:21:01;9.10;99.90
19174;DHT22;9719;49.322;8.536;2023-11-21T20:26:04;9.20;99.90
19174;DHT22;9719;49.322;8.536;2023-11-21T20:31:05;9.20;99.90
19174;DHT22;9719;49.322;8.536;2023-11-21T20:36:08;9.10;99.90
19174;DHT22;9719;49.322;8.536;2023-11-21T20:41:10;9.10;99.90
19174;DHT22;9719;49.322;8.536;2023-11-21T20:46:14;9.00;99.90
19174;DHT22;9719;49.322;8.536;2023-11-21T20:51:17;9.10;99.90
19174;DHT22;9719;49.322;8.536;2023-11-21T20:56:18;9.10;99.90
19174;DHT22;9719;49.322;8.536;2023-11-21T21:01:20;9.20;99.90
19174;DHT22;9719;49.322;8.536;2023-11-21T21:06:23;9.10;99.90
19174;DHT22;9719;49.322;8.536;2023-11-21T21:11:26;9.00;99.90
19174;DHT22;9719;49.322;8.536;2023-11-21T21:16:31;9.10;99.90
19174;DHT22;9719;49.322;8.536;2023-11-21T21:21:34;9.00;99.90
19174;DHT22;9719;49.322;8.536;2023-11-21T21:26:36;9.00;99.90
19174;DHT22;9719;49.322;8.536;2023-11-21T21:31:38;9.00;99.90
19174;DHT22;9719;49.322;8.536;2023-11-21T21:36:41;8.80;99.90
19174;DHT22;9719;49.322;8.536;2023-11-21T21:41:44;8.90;99.90
19174;DHT22;9719;49.322;8.536;2023-11-21T21:46:46;8.90;99.90
19174;DHT22;9719;49.322;8.536;2023-11-21T21:51:49;8.70;99.90
19174;DHT22;9719;49.322;8.536;2023-11-21T21:56:51;8.90;99.90
19174;DHT22;9719;49.322;8.536;2023-11-21T22:01:52;8.80;99.90
19174;DHT22;9719;49.322;8.536;2023-11-21T22:06:55;8.70;99.90
19174;DHT22;9719;49.322;8.536;2023-11-21T22:11:57;8.70;99.90
19174;DHT22;9719;49.322;8.536;2023-11-21T22:16:59;8.60;99.90
19174;DHT22;9719;49.322;8.536;2023-11-21T22:22:02;8.50;99.90
19174;DHT22;9719;49.322;8.536;2023-11-21T22:27:04;8.30;99.90
19174;DHT22;9719;49.322;8.536;2023-11-21T22:32:06;8.00;99.90
19174;DHT22;9719;49.322;8.536;2023-11-21T22:37:09;7.80;99.90
19174;DHT22;9719;49.322;8.536;2023-11-21T22:42:11;7.70;99.90
19174;DHT22;9719;49.322;8.536;2023-11-21T22:47:13;7.60;99.90
19174;DHT22;9719;49.322;8.536;2023-11-21T22:52:16;7.60;99.90
19174;DHT22;9719;49.322;8.536;2023-11-21T22:57:18;7.60;99.90
19174;DHT22;9719;49.322;8.536;2023-11-21T23:02:20;7.50;99.90
19174;DHT22;9719;49.322;8.536;2023-11-21T23:07:23;7.50;99.90
19174;DHT22;9719;49.322;8.536;2023-11-21T23:12:25;7.30;99.90
19174;DHT22;9719;49.322;8.536;2023-11-21T23:17:27;7.20;99.90
19174;DHT22;9719;49.322;8.536;2023-11-21T23:22:30;7.10;99.90
19174;DHT22;9719;49.322;8.536;2023-11-21T23:27:33;7.10;99.90
19174;DHT22;9719;49.322;8.536;2023-11-21T23:32:34;7.00;99.90
19174;DHT22;9719;49.322;8.536;2023-11-21T23:37:38;6.90;99.90
19174;DHT22;9719;49.322;8.536;2023-11-21T23:42:40;6.80;99.90
19174;DHT22;9719;49.322;8.536;2023-11-21T23:47:42;6.80;99.90
19174;DHT22;9719;49.322;8.536;2023-11-21T23:52:45;6.50;99.90
19174;DHT22;9719;49.322;8.536;2023-11-21T23:57:47;6.30;99.90
